createdAt,value
2022-08-28T18:00:16.305Z,83.65
2022-08-28T18:02:54.626Z,74.35
2022-08-28T18:05:24.725Z,80.30
2022-08-28T18:07:53.891Z,79.07
2022-08-28T18:10:24.669Z,80.28
2022-08-28T18:12:54.893Z,78.97
2022-08-28T18:15:39.704Z,74.65
2022-08-28T18:18:12.802Z,72.20
2022-08-28T18:20:44.214Z,70.07
2022-08-28T18:23:14.824Z,72.60
2022-08-28T18:25:50.852Z,68.55
2022-08-28T18:28:31.479Z,69.70
2022-08-28T18:31:01.842Z,67.47
2022-08-28T18:33:34.327Z,64.75
2022-08-28T18:36:07.184Z,65.35
2022-08-28T18:39:29.444Z,62.33
2022-08-28T18:42:11.895Z,60.53
2022-08-28T18:44:52.123Z,58.67
2022-08-28T18:47:34.476Z,55.00
2022-08-28T18:50:04.272Z,54.33
2022-08-28T18:52:35.024Z,53.35
2022-08-28T18:55:05.080Z,53.63
2022-08-28T18:57:36.386Z,50.10
2022-08-28T19:00:08.063Z,45.75
2022-08-28T19:02:41.425Z,48.05
2022-08-28T19:05:16.378Z,49.78
2022-08-28T19:07:45.574Z,49.15
2022-08-28T19:10:32.938Z,46.13
2022-08-28T19:13:08.740Z,45.58
2022-08-28T19:15:41.879Z,41.15
2022-08-28T19:18:10.956Z,44.75
2022-08-28T19:20:41.784Z,42.63
2022-08-28T19:23:14.321Z,42.67
2022-08-28T19:25:49.599Z,39.33
2022-08-28T19:28:20.850Z,35.78
2022-08-28T19:30:52.613Z,40.53
2022-08-28T19:33:27.669Z,40.47
2022-08-28T19:36:13.008Z,39.28
2022-08-28T19:38:46.670Z,40.13
2022-08-28T19:44:54.503Z,39.85
2022-08-28T19:47:35.649Z,38.30
2022-08-28T19:50:04.725Z,39.53
2022-08-28T19:52:34.609Z,39.42
2022-08-28T19:55:07.530Z,41.60
2022-08-28T20:05:15.701Z,42.20
2022-08-28T20:55:26.879Z,37.67
2022-08-28T21:01:01.133Z,38.90
2022-08-28T21:08:23.783Z,38.85
2022-08-28T21:12:03.040Z,38.65
2022-08-28T21:15:17.681Z,39.33
2022-08-28T21:18:24.419Z,38.72
2022-08-28T21:20:59.251Z,40.35
2022-08-28T21:23:43.537Z,40.47
2022-08-28T21:30:10.497Z,38.88
2022-08-28T21:32:42.433Z,40.53
2022-08-28T21:35:19.468Z,42.08
2022-08-28T23:10:57.343Z,36.55
